Time;durP1;ratioP1;P1;durP2;ratioP2;P2;SDS_P1;SDS_P2;PMS_P1;PMS_P2;Temp;Humidity;BMP_temperature;BMP_pressure;BME280_temperature;BME280_humidity;BME280_pressure;Samples;Min_cycle;Max_cycle;Signal;HPM_P1;HPM_P2
2023/09/29 00:02:06;;;;;;;12.27;3.20;;;16.20;99.90;;;;;;4982861;28;20076;-35
2023/09/29 00:04:32;;;;;;;10.50;3.40;;;16.20;99.90;;;;;;4999722;28;20080;-35
2023/09/29 00:06:59;;;;;;;10.45;3.25;;;16.20;99.90;;;;;;4991192;28;20064;-35
2023/09/29 00:09:24;;;;;;;9.48;3.28;;;16.20;99.90;;;;;;5000608;28;20054;-34
2023/09/29 00:11:51;;;;;;;12.07;3.17;;;16.20;99.90;;;;;;4983243;28;20105;-35
2023/09/29 00:14:17;;;;;;;15.18;3.58;;;16.20;99.90;;;;;;4995860;28;20058;-35
2023/09/29 00:16:42;;;;;;;9.38;3.08;;;16.20;99.90;;;;;;4978699;28;20061;-34
2023/09/29 00:19:08;;;;;;;6.22;2.20;;;16.20;99.90;;;;;;4996107;28;20126;-34
2023/09/29 00:21:33;;;;;;;8.85;2.67;;;16.30;99.90;;;;;;4985054;28;20074;-35
2023/09/29 00:23:59;;;;;;;12.98;4.15;;;16.20;99.90;;;;;;4982848;28;20038;-35
2023/09/29 00:26:25;;;;;;;8.52;3.40;;;16.30;99.90;;;;;;4981234;28;20046;-34
2023/09/29 00:28:50;;;;;;;13.20;3.50;;;16.30;99.90;;;;;;4948208;28;20046;-35
2023/09/29 00:31:16;;;;;;;11.55;3.30;;;16.30;99.90;;;;;;4980554;28;20065;-36
2023/09/29 00:33:42;;;;;;;8.77;2.78;;;16.20;99.90;;;;;;4981323;28;20062;-35
2023/09/29 00:36:10;;;;;;;10.15;3.83;;;16.30;99.90;;;;;;4980971;28;20050;-35
2023/09/29 00:38:36;;;;;;;9.50;3.42;;;16.20;99.90;;;;;;4978615;28;20047;-35
2023/09/29 00:41:02;;;;;;;13.35;3.83;;;16.20;99.90;;;;;;4984285;28;20065;-35
2023/09/29 00:43:28;;;;;;;9.20;3.20;;;16.20;99.90;;;;;;4981741;28;20050;-35
2023/09/29 00:45:54;;;;;;;12.40;3.78;;;16.20;99.90;;;;;;4981955;28;20500;-34
2023/09/29 00:48:22;;;;;;;11.48;3.67;;;16.20;99.90;;;;;;4981976;28;20046;-35
2023/09/29 00:50:48;;;;;;;9.52;2.60;;;16.10;99.90;;;;;;4981975;28;20185;-35
2023/09/29 00:53:17;;;;;;;12.10;3.40;;;16.10;99.90;;;;;;4988103;28;20046;-35
2023/09/29 00:55:45;;;;;;;9.70;3.05;;;16.20;99.90;;;;;;4985004;28;20054;-34
2023/09/29 00:58:14;;;;;;;8.02;3.05;;;16.10;99.90;;;;;;4981741;28;20074;-35
2023/09/29 01:00:41;;;;;;;10.73;3.42;;;16.10;99.90;;;;;;4981626;28;20045;-35
2023/09/29 01:03:10;;;;;;;14.00;2.97;;;16.10;99.90;;;;;;4981308;28;22766;-35
2023/09/29 01:05:38;;;;;;;11.35;3.00;;;16.10;99.90;;;;;;4988712;28;20054;-35
2023/09/29 01:08:08;;;;;;;13.23;3.08;;;16.10;99.90;;;;;;4964330;28;20062;-35
2023/09/29 01:10:37;;;;;;;9.63;2.85;;;16.10;99.90;;;;;;4983456;28;20120;-35
2023/09/29 01:13:03;;;;;;;10.68;3.13;;;16.20;99.90;;;;;;4986413;28;20052;-35
2023/09/29 01:15:31;;;;;;;12.45;3.08;;;16.20;99.90;;;;;;4987172;28;20046;-35
2023/09/29 01:17:57;;;;;;;12.48;3.25;;;16.20;99.90;;;;;;4981789;28;20502;-35
2023/09/29 01:20:30;;;;;;;13.95;2.85;;;16.20;99.90;;;;;;4988772;28;20480;-35
2023/09/29 01:22:58;;;;;;;11.40;2.63;;;16.20;99.90;;;;;;4985915;28;20042;-35
2023/09/29 01:25:23;;;;;;;8.10;2.67;;;16.30;99.90;;;;;;4985301;28;20060;-35
2023/09/29 01:27:49;;;;;;;8.63;2.72;;;16.30;99.90;;;;;;4984840;28;20704;-35
2023/09/29 01:30:18;;;;;;;8.40;2.55;;;16.30;99.90;;;;;;4969066;28;20081;-35
2023/09/29 01:32:49;;;;;;;9.35;2.47;;;16.30;99.90;;;;;;4983759;28;20042;-35
2023/09/29 01:35:21;;;;;;;13.77;3.00;;;16.30;99.90;;;;;;4980906;28;20046;-35
2023/09/29 01:37:48;;;;;;;8.55;2.28;;;16.40;99.90;;;;;;4980150;28;20100;-35
2023/09/29 01:40:15;;;;;;;9.52;2.33;;;16.40;99.90;;;;;;4983427;28;20060;-35
2023/09/29 01:42:42;;;;;;;9.90;2.20;;;16.40;99.90;;;;;;4982587;28;20073;-35
2023/09/29 01:45:09;;;;;;;9.45;3.03;;;16.40;99.90;;;;;;4981931;28;20046;-35
2023/09/29 01:47:38;;;;;;;10.15;2.60;;;16.40;99.90;;;;;;4980875;28;20456;-35
2023/09/29 01:50:05;;;;;;;8.55;2.60;;;16.50;99.90;;;;;;4982063;28;20050;-35
2023/09/29 01:52:31;;;;;;;7.28;1.98;;;16.50;99.90;;;;;;4985649;28;20499;-36
2023/09/29 01:54:57;;;;;;;7.97;1.95;;;16.50;99.90;;;;;;4984082;28;20126;-35
2023/09/29 01:57:22;;;;;;;13.50;2.85;;;16.50;99.90;;;;;;4988013;28;20054;-36
2023/09/29 01:59:49;;;;;;;6.72;2.13;;;16.50;99.90;;;;;;4980008;28;20058;-35
2023/09/29 02:02:15;;;;;;;6.90;1.95;;;16.50;99.90;;;;;;4980148;28;20077;-35
2023/09/29 02:04:41;;;;;;;7.32;2.00;;;16.50;99.90;;;;;;4997635;28;20046;-35
2023/09/29 02:07:07;;;;;;;7.03;2.13;;;16.50;99.90;;;;;;4983681;28;20061;-36
2023/09/29 02:09:33;;;;;;;11.80;2.30;;;16.60;99.90;;;;;;4984310;28;20201;-35
2023/09/29 02:12:01;;;;;;;6.32;1.75;;;16.60;99.90;;;;;;4982418;28;20074;-34
2023/09/29 02:14:27;;;;;;;7.30;1.80;;;16.60;99.90;;;;;;4984061;28;20057;-35
2023/09/29 02:16:53;;;;;;;5.53;1.60;;;16.60;99.90;;;;;;4982132;28;20054;-35
2023/09/29 02:19:20;;;;;;;13.57;2.67;;;16.60;99.90;;;;;;4979651;28;20517;-35
2023/09/29 02:21:45;;;;;;;9.52;2.28;;;16.60;99.90;;;;;;4984875;28;20050;-35
2023/09/29 02:24:12;;;;;;;10.45;2.33;;;16.60;99.90;;;;;;4981533;28;20403;-35
2023/09/29 02:26:38;;;;;;;14.50;3.03;;;16.50;99.90;;;;;;4984899;28;20489;-35
2023/09/29 02:29:05;;;;;;;7.15;2.30;;;16.60;99.90;;;;;;4985332;28;20062;-35
2023/09/29 02:31:31;;;;;;;9.63;2.30;;;16.50;99.90;;;;;;4969183;28;20038;-35
2023/09/29 02:33:57;;;;;;;7.40;1.73;;;16.60;99.90;;;;;;4982499;28;20065;-35
2023/09/29 02:36:23;;;;;;;9.52;2.83;;;16.50;99.90;;;;;;4982908;28;20050;-35
2023/09/29 02:38:49;;;;;;;9.85;2.65;;;16.60;99.90;;;;;;4983723;28;20058;-34
2023/09/29 02:41:15;;;;;;;10.55;2.15;;;16.60;99.90;;;;;;4979355;28;20046;-36
2023/09/29 02:43:41;;;;;;;8.00;1.85;;;16.60;99.90;;;;;;4983972;28;20100;-35
2023/09/29 02:46:15;;;;;;;8.95;2.13;;;16.60;99.90;;;;;;4982798;28;20052;-35
2023/09/29 02:48:42;;;;;;;8.60;2.20;;;16.60;99.90;;;;;;4982263;28;20046;-35
2023/09/29 02:51:16;;;;;;;13.30;2.60;;;16.60;99.90;;;;;;4984911;28;20046;-35
2023/09/29 02:53:42;;;;;;;7.22;2.05;;;16.60;99.90;;;;;;4982068;28;20452;-35
2023/09/29 02:56:11;;;;;;;10.95;2.60;;;16.60;99.90;;;;;;4969122;28;20049;-35
2023/09/29 02:58:41;;;;;;;7.63;2.40;;;16.60;99.90;;;;;;4983976;28;20055;-36
2023/09/29 03:01:12;;;;;;;11.20;2.30;;;16.70;99.90;;;;;;4978536;28;20068;-35
2023/09/29 03:03:45;;;;;;;10.70;2.30;;;16.70;99.90;;;;;;4981544;28;20058;-36
2023/09/29 03:06:18;;;;;;;10.57;2.15;;;16.70;99.90;;;;;;4964058;28;20050;-35
2023/09/29 03:08:43;;;;;;;7.40;2.38;;;16.70;99.90;;;;;;4980445;28;20062;-35
2023/09/29 03:11:09;;;;;;;8.38;1.90;;;16.70;99.90;;;;;;4984211;28;20107;-35
2023/09/29 03:13:37;;;;;;;6.72;2.00;;;16.70;99.90;;;;;;4966693;28;20050;-33
2023/09/29 03:16:07;;;;;;;9.20;2.53;;;16.80;99.90;;;;;;4983255;28;20424;-35
2023/09/29 03:18:37;;;;;;;9.35;2.30;;;16.80;99.90;;;;;;4980554;28;20538;-35
2023/09/29 03:21:13;;;;;;;9.50;2.70;;;16.80;99.90;;;;;;4978405;28;20464;-34
2023/09/29 03:23:39;;;;;;;6.70;2.05;;;16.80;99.90;;;;;;4984953;28;20560;-35
2023/09/29 03:26:05;;;;;;;10.40;2.35;;;16.80;99.90;;;;;;4966386;28;20054;-35
2023/09/29 03:28:34;;;;;;;7.13;2.13;;;16.80;99.90;;;;;;4976245;28;20053;-35
2023/09/29 03:31:02;;;;;;;8.68;2.33;;;16.80;99.90;;;;;;4984051;28;20034;-34
2023/09/29 03:33:29;;;;;;;7.82;2.35;;;16.80;99.90;;;;;;4976785;28;20412;-35
2023/09/29 03:35:55;;;;;;;8.07;2.75;;;16.90;99.90;;;;;;4982006;28;20487;-35
2023/09/29 03:38:21;;;;;;;12.60;2.58;;;16.90;99.90;;;;;;4976897;28;20062;-35
2023/09/29 03:40:50;;;;;;;10.23;2.70;;;16.90;99.90;;;;;;4982825;28;20077;-35
2023/09/29 03:43:25;;;;;;;9.70;2.33;;;16.90;99.90;;;;;;4982875;28;20478;-35
2023/09/29 03:45:53;;;;;;;9.32;2.63;;;16.90;99.90;;;;;;4980597;28;20050;-35
2023/09/29 03:48:19;;;;;;;11.88;2.75;;;16.90;99.90;;;;;;4977881;28;20050;-35
2023/09/29 03:50:49;;;;;;;5.80;2.17;;;16.90;99.90;;;;;;4980151;28;20046;-35
2023/09/29 03:53:16;;;;;;;10.25;3.00;;;16.90;99.90;;;;;;4983572;28;20058;-35
2023/09/29 03:55:42;;;;;;;7.75;2.35;;;16.90;99.90;;;;;;4983406;28;20050;-36
2023/09/29 03:58:08;;;;;;;8.35;2.53;;;16.90;99.90;;;;;;4979214;28;20057;-34
2023/09/29 04:00:34;;;;;;;11.15;2.75;;;17.00;99.90;;;;;;4978580;28;20046;-35
2023/09/29 04:03:00;;;;;;;10.43;2.75;;;17.00;99.90;;;;;;4981600;28;20555;-35
2023/09/29 04:05:25;;;;;;;8.68;2.88;;;17.00;99.90;;;;;;4979553;28;20063;-36
2023/09/29 04:07:51;;;;;;;10.32;2.75;;;17.00;99.90;;;;;;4981350;28;20082;-35
2023/09/29 04:10:17;;;;;;;9.23;3.33;;;17.00;99.90;;;;;;4981863;28;20438;-35
2023/09/29 04:12:47;;;;;;;9.32;3.20;;;17.00;99.90;;;;;;4983146;28;20046;-35
2023/09/29 04:15:13;;;;;;;7.20;3.05;;;17.00;99.90;;;;;;4980015;28;20097;-35
2023/09/29 04:17:40;;;;;;;10.25;3.15;;;17.00;99.90;;;;;;4978122;28;20064;-33
2023/09/29 04:20:06;;;;;;;9.57;3.40;;;17.00;99.90;;;;;;4981420;28;20519;-35
2023/09/29 04:22:33;;;;;;;11.10;3.20;;;17.00;99.90;;;;;;4985605;28;20062;-35
2023/09/29 04:24:59;;;;;;;10.68;3.30;;;17.00;99.90;;;;;;4984946;28;20070;-35
2023/09/29 04:27:25;;;;;;;9.82;3.15;;;17.00;99.90;;;;;;4985939;28;22723;-35
2023/09/29 04:29:53;;;;;;;10.18;3.53;;;17.00;99.90;;;;;;4986652;28;20141;-35
2023/09/29 04:32:19;;;;;;;10.63;4.38;;;17.00;99.90;;;;;;4980713;28;20089;-36
2023/09/29 04:34:45;;;;;;;9.23;3.25;;;17.00;99.90;;;;;;4981313;28;20046;-35
2023/09/29 04:37:11;;;;;;;10.43;3.22;;;17.00;99.90;;;;;;4986687;28;20061;-35
2023/09/29 04:39:37;;;;;;;17.05;3.45;;;17.00;99.90;;;;;;4987388;28;20137;-36
2023/09/29 04:42:04;;;;;;;10.45;3.33;;;17.00;99.90;;;;;;4988495;28;20073;-35
2023/09/29 04:44:33;;;;;;;7.20;3.08;;;17.00;99.90;;;;;;4989330;28;20538;-35
2023/09/29 04:47:00;;;;;;;11.10;3.22;;;17.00;99.90;;;;;;4984554;28;20050;-35
2023/09/29 04:49:25;;;;;;;10.02;3.45;;;17.00;99.90;;;;;;4988278;28;20070;-36
2023/09/29 04:51:51;;;;;;;9.63;3.35;;;17.00;99.90;;;;;;4985797;28;20078;-35
2023/09/29 04:54:16;;;;;;;7.40;3.58;;;17.00;99.90;;;;;;4986740;28;20050;-35
2023/09/29 04:56:42;;;;;;;8.88;3.10;;;17.00;99.90;;;;;;4987682;28;20053;-35
2023/09/29 04:59:08;;;;;;;8.95;3.50;;;17.00;99.90;;;;;;4985984;28;20077;-34
2023/09/29 05:01:36;;;;;;;7.97;3.47;;;17.00;99.90;;;;;;4987803;28;20507;-35
2023/09/29 05:04:03;;;;;;;8.00;3.53;;;16.90;99.90;;;;;;4987792;28;20065;-36
2023/09/29 05:06:29;;;;;;;8.32;3.22;;;16.90;99.90;;;;;;4985272;28;20456;-36
2023/09/29 05:08:55;;;;;;;8.25;2.92;;;16.90;99.90;;;;;;4987647;28;20062;-35
2023/09/29 05:11:25;;;;;;;9.63;3.20;;;16.90;99.90;;;;;;4985503;28;20050;-35
2023/09/29 05:13:52;;;;;;;8.13;2.85;;;16.90;99.90;;;;;;4987899;28;20058;-35
2023/09/29 05:16:18;;;;;;;12.88;3.22;;;16.90;99.90;;;;;;4985274;28;20484;-35
2023/09/29 05:18:44;;;;;;;8.82;3.10;;;16.90;99.90;;;;;;4987401;28;20112;-35
2023/09/29 05:21:11;;;;;;;8.13;3.35;;;16.90;99.90;;;;;;4986789;28;20065;-35
2023/09/29 05:23:37;;;;;;;7.20;2.70;;;16.90;99.90;;;;;;4988855;28;20092;-36
2023/09/29 05:26:05;;;;;;;9.38;2.70;;;17.00;99.90;;;;;;4985850;28;20046;-35
2023/09/29 05:28:31;;;;;;;9.82;2.80;;;16.90;99.90;;;;;;4966680;28;20062;-35
2023/09/29 05:30:57;;;;;;;8.50;2.85;;;16.90;99.90;;;;;;4984367;28;20383;-36
2023/09/29 05:33:23;;;;;;;10.15;3.30;;;17.00;99.90;;;;;;4985714;28;20462;-35
2023/09/29 05:35:49;;;;;;;6.75;3.03;;;17.00;99.90;;;;;;4983780;28;20058;-36
2023/09/29 05:38:15;;;;;;;8.18;2.90;;;17.00;99.90;;;;;;4985434;28;20134;-36
2023/09/29 05:40:41;;;;;;;7.82;3.20;;;17.00;99.90;;;;;;4985238;28;20427;-35
2023/09/29 05:43:09;;;;;;;9.45;3.45;;;17.00;99.90;;;;;;4985238;28;20415;-35
2023/09/29 05:45:39;;;;;;;9.77;2.72;;;17.00;99.90;;;;;;4987453;28;20088;-35
2023/09/29 05:48:06;;;;;;;7.30;2.72;;;17.00;99.90;;;;;;4978154;28;20084;-35
2023/09/29 05:50:32;;;;;;;7.35;2.80;;;17.00;99.90;;;;;;4981125;28;20513;-35
2023/09/29 05:52:58;;;;;;;5.22;2.45;;;17.00;99.90;;;;;;4981117;28;20050;-36
2023/09/29 05:55:24;;;;;;;5.60;2.53;;;17.00;99.90;;;;;;4980522;28;20049;-35
2023/09/29 05:57:51;;;;;;;4.85;2.10;;;17.10;99.90;;;;;;4981773;28;20104;-35
2023/09/29 06:00:20;;;;;;;7.00;2.38;;;17.10;99.90;;;;;;4974471;28;20050;-35
2023/09/29 06:02:47;;;;;;;6.72;2.55;;;17.10;99.90;;;;;;4982667;28;20042;-35
2023/09/29 06:05:13;;;;;;;7.20;2.50;;;17.10;99.90;;;;;;4983912;28;20440;-35
2023/09/29 06:07:40;;;;;;;5.55;2.33;;;17.20;99.90;;;;;;4983629;28;20046;-35
2023/09/29 06:10:06;;;;;;;7.05;1.85;;;17.20;99.90;;;;;;4980490;28;20049;-35
2023/09/29 06:12:35;;;;;;;7.03;2.38;;;17.20;99.90;;;;;;4982838;28;20511;-35
2023/09/29 06:15:01;;;;;;;4.28;2.10;;;17.20;99.90;;;;;;4986689;28;21677;-35
2023/09/29 06:17:27;;;;;;;5.57;2.47;;;17.30;99.90;;;;;;4985926;28;20105;-36
2023/09/29 06:19:53;;;;;;;6.85;2.17;;;17.30;99.90;;;;;;4981225;28;20408;-35
2023/09/29 06:22:19;;;;;;;6.53;2.08;;;17.30;99.90;;;;;;4984364;28;20054;-35
2023/09/29 06:24:45;;;;;;;4.90;2.10;;;17.30;99.90;;;;;;4967662;28;20100;-35
2023/09/29 06:27:11;;;;;;;6.40;2.03;;;17.40;99.90;;;;;;4985234;28;20078;-36
2023/09/29 06:29:39;;;;;;;7.80;2.10;;;17.40;99.90;;;;;;4981485;28;20140;-35
2023/09/29 06:32:05;;;;;;;4.38;1.70;;;17.40;99.90;;;;;;4985998;28;20053;-35
2023/09/29 06:34:31;;;;;;;5.35;1.90;;;17.40;99.90;;;;;;4976800;28;20137;-35
2023/09/29 06:36:56;;;;;;;4.65;1.85;;;17.50;99.90;;;;;;4982392;28;20149;-36
2023/09/29 06:39:22;;;;;;;5.85;1.80;;;17.50;99.90;;;;;;4983131;28;20549;-35
2023/09/29 06:41:48;;;;;;;6.70;1.77;;;17.50;99.90;;;;;;4961729;28;20082;-35
2023/09/29 06:44:13;;;;;;;5.40;2.00;;;17.50;99.90;;;;;;4979257;28;20050;-35
2023/09/29 06:46:39;;;;;;;7.32;1.90;;;17.50;99.90;;;;;;4982043;28;20078;-35
2023/09/29 06:49:04;;;;;;;4.78;2.20;;;17.50;99.90;;;;;;4986235;28;20092;-35
2023/09/29 06:51:30;;;;;;;4.93;2.30;;;17.50;99.90;;;;;;4985800;28;20104;-35
2023/09/29 06:53:56;;;;;;;3.47;1.70;;;17.50;99.90;;;;;;4994685;28;20575;-35
2023/09/29 06:56:22;;;;;;;4.65;2.03;;;17.50;99.90;;;;;;4982525;28;20046;-35
2023/09/29 06:58:47;;;;;;;11.45;2.53;;;17.50;99.90;;;;;;4985845;28;20471;-35
2023/09/29 07:01:13;;;;;;;6.47;2.30;;;17.50;99.90;;;;;;4978193;28;20081;-35
2023/09/29 07:03:39;;;;;;;5.32;2.28;;;17.50;99.90;;;;;;4973022;28;20088;-35
2023/09/29 07:06:05;;;;;;;3.97;1.63;;;17.50;99.90;;;;;;4978467;28;20464;-35
2023/09/29 07:08:31;;;;;;;4.65;2.00;;;17.50;99.90;;;;;;4978623;28;20054;-35
2023/09/29 07:10:57;;;;;;;4.93;1.83;;;17.50;99.90;;;;;;4979439;28;20084;-35
2023/09/29 07:13:23;;;;;;;4.47;1.92;;;17.50;99.90;;;;;;4979114;28;20464;-35
2023/09/29 07:15:49;;;;;;;6.07;2.10;;;17.40;99.90;;;;;;4976685;28;20451;-35
2023/09/29 07:18:16;;;;;;;3.45;1.77;;;17.50;99.90;;;;;;4978658;28;20054;-35
2023/09/29 07:20:43;;;;;;;4.25;2.00;;;17.50;99.90;;;;;;4975268;28;20062;-35
2023/09/29 07:23:08;;;;;;;6.07;2.20;;;17.50;99.90;;;;;;4975289;28;20070;-35
2023/09/29 07:25:38;;;;;;;3.88;2.10;;;17.50;99.90;;;;;;4975785;28;20068;-35
2023/09/29 07:28:11;;;;;;;5.13;1.90;;;17.50;99.90;;;;;;4975628;28;20054;-35
2023/09/29 07:30:36;;;;;;;3.75;2.17;;;17.60;99.90;;;;;;4987649;28;20046;-33
2023/09/29 07:33:02;;;;;;;5.63;2.50;;;17.60;99.90;;;;;;4983408;28;20058;-35
2023/09/29 07:35:28;;;;;;;4.72;2.17;;;17.70;99.90;;;;;;4978845;28;20050;-35
2023/09/29 07:37:54;;;;;;;4.32;2.05;;;17.80;99.90;;;;;;4985090;28;20412;-35
2023/09/29 07:40:19;;;;;;;4.57;1.80;;;17.80;99.90;;;;;;4977210;28;20054;-35
2023/09/29 07:42:45;;;;;;;4.65;2.60;;;17.90;99.90;;;;;;4975668;28;20058;-35
2023/09/29 07:45:11;;;;;;;5.20;2.15;;;18.00;99.90;;;;;;4984365;28;20062;-35
2023/09/29 07:47:41;;;;;;;3.65;1.73;;;18.10;99.90;;;;;;4981591;28;20081;-35
2023/09/29 07:50:07;;;;;;;6.47;2.38;;;18.10;99.90;;;;;;4987190;28;20054;-35
2023/09/29 07:52:37;;;;;;;4.68;2.10;;;18.20;99.90;;;;;;4989239;28;20050;-36
2023/09/29 07:55:04;;;;;;;6.85;2.40;;;18.20;99.90;;;;;;4986207;28;20104;-36
2023/09/29 07:57:29;;;;;;;6.85;2.72;;;18.30;99.90;;;;;;4988662;28;20051;-36
2023/09/29 07:59:55;;;;;;;6.38;2.38;;;18.40;99.90;;;;;;4990555;28;20050;-35
2023/09/29 08:02:21;;;;;;;9.98;2.60;;;18.40;99.90;;;;;;4992492;28;20058;-35
2023/09/29 08:04:46;;;;;;;4.05;2.00;;;18.50;99.90;;;;;;4991081;28;20062;-35
2023/09/29 08:07:13;;;;;;;6.18;2.50;;;18.50;99.90;;;;;;4991974;28;20046;-35
2023/09/29 08:09:39;;;;;;;5.82;2.45;;;18.60;99.90;;;;;;4991419;28;20134;-35
2023/09/29 08:12:05;;;;;;;5.13;2.20;;;18.60;99.90;;;;;;4990452;28;20078;-35
2023/09/29 08:14:31;;;;;;;5.28;2.05;;;18.70;99.90;;;;;;4991860;28;20056;-34
2023/09/29 08:16:57;;;;;;;4.63;1.95;;;18.80;99.90;;;;;;4992008;28;20054;-36
2023/09/29 08:19:23;;;;;;;3.13;2.13;;;18.80;99.90;;;;;;4989719;28;20053;-35
2023/09/29 08:21:49;;;;;;;4.63;2.00;;;18.80;99.90;;;;;;4992483;28;20050;-35
2023/09/29 08:24:15;;;;;;;6.75;2.22;;;18.90;99.90;;;;;;4980232;28;20073;-36
2023/09/29 08:26:41;;;;;;;4.63;2.13;;;18.90;99.90;;;;;;4991662;28;20539;-36
2023/09/29 08:29:09;;;;;;;3.95;1.77;;;18.90;99.90;;;;;;4990167;28;20393;-35
2023/09/29 08:31:35;;;;;;;4.10;1.88;;;18.90;99.90;;;;;;4990869;28;20514;-35
2023/09/29 08:34:01;;;;;;;5.40;2.25;;;19.00;99.90;;;;;;4991546;28;20043;-35
2023/09/29 08:36:27;;;;;;;3.80;1.88;;;19.00;99.90;;;;;;4990418;28;20065;-35
2023/09/29 08:38:53;;;;;;;5.57;2.17;;;19.00;99.90;;;;;;4992445;28;20416;-36
2023/09/29 08:41:25;;;;;;;5.68;1.90;;;19.10;99.90;;;;;;4990059;28;20163;-35
2023/09/29 08:43:51;;;;;;;;;;;19.10;99.90;;;;;;4991849;28;20064;-35
2023/09/29 08:46:19;;;;;;;6.72;2.10;;;19.20;99.90;;;;;;4984792;28;20016;-34
2023/09/29 08:48:47;;;;;;;4.47;2.20;;;19.30;99.90;;;;;;4988751;28;20420;-36
2023/09/29 08:51:14;;;;;;;3.28;1.80;;;19.40;99.90;;;;;;4991572;28;20058;-35
2023/09/29 08:53:44;;;;;;;3.28;1.80;;;19.60;99.90;;;;;;4988231;28;20046;-35
2023/09/29 08:56:14;;;;;;;3.25;1.85;;;19.70;99.90;;;;;;4984624;28;20050;-35
2023/09/29 08:58:40;;;;;;;5.57;2.20;;;19.80;99.90;;;;;;4986871;28;20054;-35
2023/09/29 09:01:06;;;;;;;5.30;1.92;;;19.90;99.90;;;;;;4989597;28;20501;-35
2023/09/29 09:03:32;;;;;;;5.47;1.80;;;20.00;99.90;;;;;;4990962;28;20129;-35
2023/09/29 09:05:58;;;;;;;4.82;2.00;;;20.10;99.90;;;;;;4989574;28;20141;-35
2023/09/29 09:08:25;;;;;;;3.80;1.73;;;20.10;99.90;;;;;;4988363;28;20121;-35
2023/09/29 09:11:02;;;;;;;3.88;1.73;;;20.10;99.90;;;;;;4972092;28;20049;-35
2023/09/29 09:13:28;;;;;;;3.45;1.52;;;20.20;99.90;;;;;;4986796;28;20539;-36
2023/09/29 09:15:58;;;;;;;3.50;1.90;;;20.30;99.90;;;;;;4980000;28;20055;-35
2023/09/29 09:18:27;;;;;;;3.08;1.52;;;20.30;99.90;;;;;;4993350;28;21361;-35
2023/09/29 09:20:57;;;;;;;3.17;1.23;;;20.30;99.90;;;;;;4986211;28;20043;-36
2023/09/29 09:23:23;;;;;;;3.92;1.50;;;20.40;99.90;;;;;;4990060;28;20498;-35
2023/09/29 09:25:49;;;;;;;4.97;1.77;;;20.30;99.90;;;;;;4983566;28;20042;-35
2023/09/29 09:28:19;;;;;;;7.03;1.60;;;20.20;99.90;;;;;;4986762;28;20050;-35
2023/09/29 09:30:46;;;;;;;2.92;1.52;;;20.20;99.90;;;;;;4985806;28;20058;-35
2023/09/29 09:33:21;;;;;;;3.47;1.60;;;20.10;99.90;;;;;;4991081;28;20046;-36
2023/09/29 09:35:49;;;;;;;2.42;1.40;;;20.00;99.90;;;;;;4989317;28;20404;-36
2023/09/29 09:38:15;;;;;;;4.15;1.60;;;20.00;99.90;;;;;;4990509;28;20100;-36
2023/09/29 09:40:47;;;;;;;3.63;1.95;;;20.00;99.90;;;;;;4971659;28;20054;-35
2023/09/29 09:43:13;;;;;;;2.72;1.30;;;20.00;99.90;;;;;;4989097;28;20045;-36
2023/09/29 09:45:40;;;;;;;4.30;1.50;;;20.10;99.90;;;;;;4990160;28;20054;-35
2023/09/29 09:48:10;;;;;;;6.55;1.40;;;20.10;99.90;;;;;;4989389;28;20085;-35
2023/09/29 09:50:40;;;;;;;6.18;1.80;;;20.10;99.90;;;;;;4985511;28;20056;-36
2023/09/29 09:53:11;;;;;;;4.38;2.25;;;20.10;99.90;;;;;;4988168;28;20504;-33
2023/09/29 09:55:54;;;;;;;3.42;1.42;;;20.20;99.90;;;;;;4986381;28;20093;-35
2023/09/29 09:58:22;;;;;;;5.45;1.95;;;20.20;99.90;;;;;;4988252;28;20046;-36
2023/09/29 10:00:54;;;;;;;4.43;1.70;;;20.10;99.90;;;;;;4981362;28;20045;-35
2023/09/29 10:03:21;;;;;;;6.18;2.03;;;20.10;99.90;;;;;;4970374;28;20566;-35
2023/09/29 10:05:53;;;;;;;6.32;1.90;;;20.20;99.90;;;;;;4986015;28;20055;-35
2023/09/29 10:08:29;;;;;;;3.72;1.85;;;20.20;99.90;;;;;;4973536;28;20129;-35
2023/09/29 10:11:10;;;;;;;5.07;1.83;;;20.20;99.90;;;;;;4970571;28;20042;-35
2023/09/29 10:13:37;;;;;;;5.15;1.90;;;20.30;99.90;;;;;;4985977;28;20050;-35
2023/09/29 10:16:05;;;;;;;3.60;1.48;;;20.30;99.90;;;;;;4988636;28;20054;-36
2023/09/29 10:18:33;;;;;;;3.78;1.52;;;20.40;99.90;;;;;;4987095;28;20054;-36
2023/09/29 10:21:09;;;;;;;4.35;1.80;;;20.50;99.90;;;;;;4984589;28;20050;-35
2023/09/29 10:23:50;;;;;;;3.35;1.63;;;20.50;99.90;;;;;;4985579;28;20047;-35
2023/09/29 10:26:16;;;;;;;3.15;1.88;;;20.60;99.90;;;;;;4989021;28;20124;-36
2023/09/29 10:28:45;;;;;;;3.83;1.65;;;20.70;99.90;;;;;;4988413;28;20046;-35
2023/09/29 10:31:15;;;;;;;6.20;2.00;;;20.80;99.90;;;;;;5002306;28;20046;-35
2023/09/29 10:33:53;;;;;;;4.03;2.15;;;20.80;99.90;;;;;;4971673;28;20129;-36
2023/09/29 10:36:30;;;;;;;5.13;1.95;;;20.90;99.90;;;;;;4987762;28;20099;-35
2023/09/29 10:38:58;;;;;;;4.13;1.90;;;20.90;99.90;;;;;;4981479;28;20051;-35
2023/09/29 10:41:25;;;;;;;6.38;2.20;;;20.90;99.90;;;;;;4987019;28;20311;-35
2023/09/29 10:43:50;;;;;;;4.20;1.95;;;20.90;99.90;;;;;;4984319;28;20058;-35
2023/09/29 10:46:21;;;;;;;5.38;2.30;;;20.90;99.90;;;;;;4984958;28;20136;-35
2023/09/29 10:48:51;;;;;;;7.03;2.00;;;20.90;99.90;;;;;;4982377;28;20046;-35
2023/09/29 10:51:24;;;;;;;5.75;1.98;;;20.90;99.90;;;;;;4984023;28;20053;-36
2023/09/29 10:53:51;;;;;;;4.88;1.98;;;20.90;99.90;;;;;;4985097;28;20050;-35
2023/09/29 10:56:21;;;;;;;6.72;2.28;;;20.90;99.90;;;;;;4976121;28;20629;-36
2023/09/29 10:58:52;;;;;;;7.05;2.35;;;20.90;99.90;;;;;;4981342;28;20050;-34
2023/09/29 11:01:30;;;;;;;5.13;2.38;;;20.90;99.90;;;;;;4976149;28;20081;-35
2023/09/29 11:03:56;;;;;;;3.88;2.17;;;20.90;99.90;;;;;;4962900;28;20054;-35
2023/09/29 11:06:23;;;;;;;6.60;2.22;;;20.90;99.90;;;;;;4985328;28;20046;-36
2023/09/29 11:08:54;;;;;;;3.42;1.77;;;20.90;99.90;;;;;;4977910;28;20100;-35
2023/09/29 11:11:20;;;;;;;6.67;2.13;;;21.00;99.90;;;;;;4979040;28;20050;-35
2023/09/29 11:13:57;;;;;;;4.63;2.08;;;21.00;99.90;;;;;;4978036;28;20140;-35
2023/09/29 11:16:25;;;;;;;4.45;2.25;;;21.00;99.90;;;;;;4975616;28;20052;-36
2023/09/29 11:18:57;;;;;;;4.65;2.03;;;21.00;99.90;;;;;;4958954;28;20073;-35
2023/09/29 11:21:36;;;;;;;6.45;1.75;;;21.10;99.90;;;;;;4974553;28;20101;-35
2023/09/29 11:24:11;;;;;;;3.47;2.00;;;21.20;99.90;;;;;;4986347;28;20678;-35
2023/09/29 11:26:48;;;;;;;3.67;1.75;;;21.20;99.90;;;;;;4983344;28;20141;-35
2023/09/29 11:29:25;;;;;;;6.63;2.00;;;21.20;99.90;;;;;;4985535;28;20463;-35
2023/09/29 11:31:53;;;;;;;5.20;2.00;;;21.20;99.90;;;;;;4987352;28;20046;-36
2023/09/29 11:34:19;;;;;;;10.05;1.80;;;21.30;99.90;;;;;;4982004;28;20064;-35
2023/09/29 11:36:45;;;;;;;4.93;1.50;;;21.30;99.90;;;;;;4986288;28;20496;-36
2023/09/29 11:39:16;;;;;;;8.02;2.72;;;21.40;99.90;;;;;;4983762;28;20057;-35
2023/09/29 11:41:42;;;;;;;5.00;2.07;;;21.40;99.90;;;;;;4986535;28;20048;-35
2023/09/29 11:44:08;;;;;;;6.05;1.48;;;21.40;99.90;;;;;;4983913;28;20050;-36
2023/09/29 11:46:35;;;;;;;6.63;1.70;;;21.40;99.90;;;;;;4985708;28;20411;-35
2023/09/29 11:49:01;;;;;;;6.20;1.67;;;21.40;99.90;;;;;;4986008;28;20094;-34
2023/09/29 11:51:27;;;;;;;3.65;1.40;;;21.40;99.90;;;;;;4984161;28;20062;-36
2023/09/29 11:53:52;;;;;;;2.08;1.10;;;21.40;99.90;;;;;;4985887;28;20050;-34
2023/09/29 11:56:18;;;;;;;3.90;1.38;;;21.30;99.90;;;;;;4973372;28;20058;-36
2023/09/29 11:58:44;;;;;;;3.50;1.35;;;21.20;99.90;;;;;;4983199;28;20500;-35
2023/09/29 12:01:10;;;;;;;7.70;2.08;;;21.10;99.90;;;;;;4981125;28;20389;-35
2023/09/29 12:03:36;;;;;;;5.43;2.20;;;20.90;99.90;;;;;;4985982;28;20515;-36
2023/09/29 12:06:02;;;;;;;3.30;1.58;;;20.70;99.90;;;;;;4985933;28;20054;-35
2023/09/29 12:08:31;;;;;;;6.15;1.58;;;20.50;99.90;;;;;;4981947;28;20074;-40
2023/09/29 12:10:58;;;;;;;2.35;1.42;;;20.20;99.90;;;;;;4984950;28;20093;-36
2023/09/29 12:13:25;;;;;;;3.88;1.63;;;20.00;99.90;;;;;;4981949;28;20582;-35
2023/09/29 12:15:51;;;;;;;3.25;1.60;;;19.80;99.90;;;;;;4986299;28;20054;-35
2023/09/29 12:18:17;;;;;;;2.38;1.27;;;19.80;99.90;;;;;;4986016;28;20050;-35
2023/09/29 12:20:43;;;;;;;2.97;1.50;;;19.70;99.90;;;;;;4983785;28;20038;-35
2023/09/29 12:23:08;;;;;;;4.13;1.70;;;19.70;99.90;;;;;;4982075;28;20468;-35
2023/09/29 12:25:35;;;;;;;3.42;2.00;;;19.70;99.90;;;;;;4985249;28;20050;-35
2023/09/29 12:28:05;;;;;;;4.70;2.47;;;19.70;99.90;;;;;;4984328;28;20050;-36
2023/09/29 12:30:30;;;;;;;3.65;2.15;;;19.70;99.90;;;;;;4985505;28;20124;-36
2023/09/29 12:32:56;;;;;;;3.92;2.30;;;19.70;99.90;;;;;;4986609;28;20054;-36
2023/09/29 12:35:22;;;;;;;4.22;2.20;;;19.60;99.90;;;;;;4986195;28;20050;-35
2023/09/29 12:37:47;;;;;;;2.25;0.95;;;19.60;99.90;;;;;;4983737;28;20081;-36
2023/09/29 12:40:15;;;;;;;3.65;1.20;;;19.40;99.90;;;;;;4986968;28;20062;-36
2023/09/29 12:42:50;;;;;;;1.00;0.60;;;19.10;99.90;;;;;;4989868;28;20085;-36
2023/09/29 12:45:21;;;;;;;1.35;0.60;;;18.90;99.90;;;;;;4987282;28;20419;-35
2023/09/29 12:47:48;;;;;;;1.97;0.50;;;18.70;99.90;;;;;;4985978;28;20412;-36